createdAt,value
2019-03-26T00:01:01.056Z,64.80
2019-03-26T00:03:30.881Z,64.90
2019-03-26T00:06:01.950Z,64.70
2019-03-26T00:08:31.840Z,64.70
2019-03-26T00:11:01.713Z,64.70
2019-03-26T00:13:31.599Z,64.80
2019-03-26T00:16:01.429Z,64.80
2019-03-26T00:18:32.393Z,65.00
2019-03-26T00:21:02.323Z,65.10
2019-03-26T00:23:32.229Z,64.90
2019-03-26T00:26:02.065Z,64.70
2019-03-26T00:28:31.961Z,64.10
2019-03-26T00:31:01.868Z,63.60
2019-03-26T00:33:36.715Z,63.40
2019-03-26T00:36:03.356Z,63.00
2019-03-26T00:38:33.239Z,62.90
2019-03-26T00:41:03.747Z,63.00
2019-03-26T00:43:33.657Z,63.10
2019-03-26T00:46:04.621Z,62.90
2019-03-26T00:48:34.494Z,62.80
2019-03-26T00:51:04.358Z,62.70
2019-03-26T00:53:34.234Z,62.50
2019-03-26T00:56:04.129Z,62.00
2019-03-26T00:58:33.981Z,61.40
2019-03-26T01:01:03.881Z,61.40
2019-03-26T01:03:33.890Z,60.90
2019-03-26T01:06:03.744Z,60.50
2019-03-26T01:08:33.646Z,60.50
2019-03-26T01:11:03.523Z,61.30
2019-03-26T01:13:33.445Z,61.20
2019-03-26T01:16:03.984Z,61.00
2019-03-26T01:18:33.845Z,61.20
2019-03-26T01:21:03.729Z,61.10
2019-03-26T01:23:33.546Z,61.10
2019-03-26T01:26:03.421Z,60.80
2019-03-26T01:28:33.241Z,60.80
2019-03-26T01:31:03.149Z,60.50
2019-03-26T01:33:32.969Z,60.40
2019-03-26T01:36:02.828Z,60.50
2019-03-26T01:38:32.721Z,60.60
2019-03-26T01:41:03.058Z,60.50
2019-03-26T01:43:33.026Z,60.40
2019-03-26T01:46:02.860Z,60.30
2019-03-26T01:48:32.698Z,60.20
2019-03-26T01:51:02.581Z,60.20
2019-03-26T01:53:32.398Z,60.10
2019-03-26T01:56:02.483Z,60.40
2019-03-26T01:58:32.374Z,60.50
2019-03-26T02:01:02.330Z,60.50
2019-03-26T02:03:32.160Z,60.70
2019-03-26T02:06:02.921Z,61.10
2019-03-26T02:08:32.854Z,61.30
2019-03-26T02:11:02.769Z,62.10
2019-03-26T02:13:32.618Z,62.40
2019-03-26T02:16:03.207Z,62.80
2019-03-26T02:18:33.170Z,63.10
2019-03-26T02:21:04.853Z,63.20
2019-03-26T02:23:34.737Z,63.10
2019-03-26T02:26:05.577Z,63.20
2019-03-26T02:28:35.477Z,64.20
2019-03-26T02:31:05.302Z,63.40
2019-03-26T02:33:35.196Z,63.90
2019-03-26T02:36:05.091Z,63.20
2019-03-26T02:38:35.035Z,62.80
2019-03-26T02:41:05.907Z,62.20
2019-03-26T02:43:35.864Z,62.20
2019-03-26T02:46:06.006Z,61.90
2019-03-26T02:48:35.822Z,61.90
2019-03-26T02:51:05.737Z,60.90
2019-03-26T02:53:35.691Z,60.90
2019-03-26T02:56:05.593Z,60.90
2019-03-26T02:58:35.500Z,60.30
2019-03-26T03:01:05.324Z,61.00
2019-03-26T03:03:35.275Z,61.10
2019-03-26T03:06:05.176Z,60.80
2019-03-26T03:08:35.073Z,59.50
2019-03-26T03:11:05.097Z,59.50
2019-03-26T03:13:34.923Z,58.80
2019-03-26T03:16:04.788Z,58.00
2019-03-26T03:18:34.682Z,58.30
2019-03-26T03:21:04.559Z,59.00
2019-03-26T03:23:34.386Z,58.40
2019-03-26T03:26:04.272Z,57.90
2019-03-26T03:28:34.141Z,57.80
2019-03-26T03:31:04.034Z,57.90
2019-03-26T03:33:33.995Z,58.10
2019-03-26T03:36:03.939Z,58.00
2019-03-26T03:38:33.917Z,58.20
2019-03-26T03:41:03.845Z,58.40
2019-03-26T03:43:33.782Z,58.70
2019-03-26T03:46:04.559Z,59.00
2019-03-26T03:48:35.061Z,59.10
2019-03-26T03:51:05.075Z,58.70
2019-03-26T03:53:35.326Z,58.50
2019-03-26T03:56:06.171Z,58.80
2019-03-26T03:58:38.489Z,58.50
2019-03-26T04:01:08.358Z,58.80
2019-03-26T04:03:38.312Z,59.00
2019-03-26T04:06:10.129Z,59.10
2019-03-26T04:08:39.948Z,59.20
2019-03-26T04:11:09.812Z,59.40
2019-03-26T04:13:39.641Z,59.30
2019-03-26T04:16:09.514Z,59.30
2019-03-26T04:18:39.366Z,59.70
2019-03-26T04:21:09.233Z,60.10
2019-03-26T04:23:39.098Z,60.30
2019-03-26T04:26:08.919Z,60.70
2019-03-26T04:28:38.874Z,60.60
2019-03-26T04:31:08.791Z,60.70
2019-03-26T04:33:38.630Z,61.00
2019-03-26T04:36:24.144Z,61.20
2019-03-26T04:38:40.145Z,61.30
2019-03-26T04:41:11.038Z,61.80
2019-03-26T04:43:40.922Z,62.20
2019-03-26T04:46:10.823Z,62.70
2019-03-26T04:48:40.736Z,63.30
2019-03-26T04:51:10.553Z,63.60
2019-03-26T04:53:40.386Z,63.40
2019-03-26T04:56:10.265Z,63.40
2019-03-26T04:58:40.105Z,63.90
2019-03-26T05:01:09.982Z,64.30
2019-03-26T05:03:39.909Z,64.30
2019-03-26T05:06:09.844Z,64.50
2019-03-26T05:08:39.998Z,64.20
2019-03-26T05:11:09.929Z,63.70
2019-03-26T05:13:39.837Z,63.70
2019-03-26T05:16:10.825Z,63.20
2019-03-26T05:18:40.670Z,62.60
2019-03-26T05:21:10.665Z,61.70
2019-03-26T05:23:41.581Z,61.50
2019-03-26T05:26:12.518Z,61.40
2019-03-26T05:28:42.442Z,61.10
2019-03-26T05:31:12.362Z,61.00
2019-03-26T05:33:42.212Z,61.00
2019-03-26T05:36:12.240Z,60.70
2019-03-26T05:38:42.138Z,60.20
2019-03-26T05:41:12.014Z,59.80
2019-03-26T05:43:41.934Z,59.70
2019-03-26T05:46:11.845Z,59.10
2019-03-26T05:48:41.797Z,58.80
2019-03-26T05:51:11.769Z,58.80
2019-03-26T05:53:41.664Z,59.00
2019-03-26T05:56:11.597Z,59.00
2019-03-26T05:58:41.465Z,58.80
2019-03-26T06:01:11.437Z,59.00
2019-03-26T06:03:41.326Z,59.30
2019-03-26T06:06:11.285Z,58.90
2019-03-26T06:08:41.115Z,58.60
2019-03-26T06:11:11.043Z,58.60
2019-03-26T06:13:41.102Z,58.80
2019-03-26T06:16:11.574Z,58.60
2019-03-26T06:18:41.545Z,58.30
2019-03-26T06:21:12.492Z,58.70
2019-03-26T06:23:42.353Z,58.90
2019-03-26T06:26:12.242Z,58.70
2019-03-26T06:28:42.059Z,58.70
2019-03-26T06:31:11.880Z,58.50
2019-03-26T06:33:41.767Z,58.60
2019-03-26T06:36:11.652Z,58.00
2019-03-26T06:38:41.606Z,60.10
2019-03-26T06:41:11.438Z,62.90
2019-03-26T06:43:41.321Z,63.90
2019-03-26T06:46:11.151Z,63.80
2019-03-26T06:48:41.102Z,63.90
2019-03-26T06:51:10.925Z,63.70
2019-03-26T06:53:40.805Z,63.70
2019-03-26T06:56:10.741Z,63.50
2019-03-26T06:58:40.638Z,63.10
2019-03-26T07:01:12.550Z,63.70
2019-03-26T07:03:42.442Z,62.90
2019-03-26T07:06:12.342Z,63.00
2019-03-26T07:08:42.221Z,62.70
2019-03-26T07:11:12.050Z,62.00
2019-03-26T07:13:41.926Z,62.10
2019-03-26T07:16:11.801Z,62.20
2019-03-26T07:18:41.697Z,62.10
2019-03-26T07:21:11.520Z,61.30
2019-03-26T07:23:41.401Z,60.00
2019-03-26T07:26:11.285Z,59.30
2019-03-26T07:28:41.169Z,58.10
2019-03-26T07:31:10.999Z,57.20
2019-03-26T07:33:40.869Z,56.70
2019-03-26T07:36:10.761Z,56.70
2019-03-26T07:38:40.584Z,56.30
2019-03-26T07:41:10.489Z,55.50
2019-03-26T07:43:40.321Z,54.60
2019-03-26T07:46:10.243Z,54.90
2019-03-26T07:48:40.101Z,54.20
2019-03-26T07:51:09.965Z,53.80
2019-03-26T07:53:39.837Z,53.80
2019-03-26T07:56:09.661Z,53.80
2019-03-26T07:58:39.552Z,53.40
2019-03-26T08:01:11.949Z,53.20
2019-03-26T08:03:41.760Z,52.80
2019-03-26T08:06:11.640Z,52.70
2019-03-26T08:08:41.545Z,52.60
2019-03-26T08:11:11.437Z,51.50
2019-03-26T08:13:41.273Z,50.80
2019-03-26T08:16:11.092Z,50.50
2019-03-26T08:18:41.037Z,50.90
2019-03-26T08:21:10.902Z,51.50
2019-03-26T08:23:40.856Z,51.10
2019-03-26T08:26:10.719Z,51.40
2019-03-26T08:28:40.587Z,50.50
2019-03-26T08:31:10.506Z,49.70
2019-03-26T08:33:40.389Z,49.10
2019-03-26T08:36:10.290Z,49.70
2019-03-26T08:38:40.183Z,50.20
2019-03-26T08:41:10.057Z,50.40
2019-03-26T08:43:41.089Z,50.70
2019-03-26T08:46:11.683Z,50.70
2019-03-26T08:48:41.515Z,48.50
2019-03-26T08:51:11.405Z,48.90
2019-03-26T08:53:41.273Z,47.60
2019-03-26T08:56:11.154Z,46.60
2019-03-26T08:58:41.041Z,47.20
2019-03-26T09:01:10.869Z,47.80
2019-03-26T09:03:40.733Z,48.60
2019-03-26T09:06:10.730Z,47.60
2019-03-26T09:08:40.617Z,47.90
2019-03-26T09:11:10.505Z,47.40
2019-03-26T09:13:40.414Z,47.40
2019-03-26T09:16:10.273Z,48.00
2019-03-26T09:18:40.165Z,46.70
2019-03-26T09:21:10.008Z,46.90
2019-03-26T09:23:39.937Z,44.20
2019-03-26T09:26:09.905Z,42.80
2019-03-26T09:28:39.796Z,42.00
2019-03-26T09:31:09.677Z,41.00
2019-03-26T09:33:39.557Z,40.30
2019-03-26T09:36:09.393Z,40.60
2019-03-26T09:38:39.556Z,40.90
2019-03-26T09:41:10.953Z,41.80
2019-03-26T09:43:41.805Z,40.20
2019-03-26T09:46:11.686Z,42.00
2019-03-26T09:48:41.533Z,41.20
2019-03-26T09:51:11.410Z,41.40
2019-03-26T09:53:41.318Z,41.50
2019-03-26T09:56:11.167Z,38.00
2019-03-26T09:58:41.058Z,38.00
2019-03-26T10:01:10.933Z,38.00
2019-03-26T10:03:40.828Z,37.30
2019-03-26T10:06:22.891Z,37.40
2019-03-26T10:08:52.247Z,37.60
2019-03-26T10:11:14.218Z,38.40
2019-03-26T10:13:44.120Z,37.80
2019-03-26T10:16:13.944Z,38.80
2019-03-26T10:18:43.984Z,38.70
2019-03-26T10:21:13.902Z,39.20
2019-03-26T10:23:43.884Z,38.80
2019-03-26T10:26:13.806Z,38.80
2019-03-26T10:28:43.664Z,37.90
2019-03-26T10:31:14.542Z,37.60
2019-03-26T10:33:44.466Z,36.80
2019-03-26T10:36:14.341Z,36.20
2019-03-26T10:38:44.371Z,35.50
2019-03-26T10:41:14.545Z,37.30
2019-03-26T10:43:44.633Z,34.90
2019-03-26T10:46:14.484Z,35.50
2019-03-26T10:48:44.485Z,35.30
2019-03-26T10:51:14.317Z,36.20
2019-03-26T10:53:44.415Z,36.10
2019-03-26T10:56:14.261Z,35.60
2019-03-26T10:58:44.173Z,35.40
2019-03-26T11:01:14.157Z,35.80
2019-03-26T11:03:44.009Z,36.90
2019-03-26T11:06:13.978Z,42.20
2019-03-26T11:08:45.175Z,38.40
2019-03-26T11:11:15.393Z,40.20
2019-03-26T11:13:45.485Z,39.60
2019-03-26T11:16:15.413Z,40.10
2019-03-26T11:18:45.519Z,39.70
2019-03-26T11:21:15.406Z,39.60
2019-03-26T11:23:45.273Z,39.60
2019-03-26T11:26:15.233Z,36.30
2019-03-26T11:28:45.107Z,34.40
2019-03-26T11:31:15.034Z,34.40
2019-03-26T11:33:45.085Z,34.60
2019-03-26T11:36:15.001Z,34.10
2019-03-26T11:38:45.417Z,34.00
2019-03-26T11:41:15.281Z,33.60
2019-03-26T11:43:45.253Z,34.50
2019-03-26T11:46:15.122Z,34.00
2019-03-26T11:48:45.088Z,34.10
2019-03-26T11:51:15.180Z,34.20
2019-03-26T11:53:45.065Z,35.80
2019-03-26T11:56:15.030Z,37.20
2019-03-26T11:58:44.913Z,37.20
2019-03-26T12:01:14.777Z,35.00
2019-03-26T12:03:45.698Z,34.20
2019-03-26T12:06:15.537Z,33.70
2019-03-26T12:08:45.416Z,33.10
2019-03-26T12:11:15.299Z,34.10
2019-03-26T12:13:45.218Z,35.00
2019-03-26T12:16:15.085Z,34.90
2019-03-26T12:18:44.963Z,34.80
2019-03-26T12:21:14.850Z,34.30
2019-03-26T12:23:44.718Z,33.50
2019-03-26T12:26:14.589Z,34.40
2019-03-26T12:28:44.520Z,34.50
2019-03-26T12:31:14.413Z,34.40
2019-03-26T12:33:44.349Z,34.70
2019-03-26T12:36:14.216Z,33.40
2019-03-26T12:38:44.087Z,32.90
2019-03-26T12:41:13.910Z,33.60
2019-03-26T12:43:43.811Z,31.70
2019-03-26T12:46:13.739Z,31.60
2019-03-26T12:48:43.621Z,31.50
2019-03-26T12:51:13.496Z,32.90
2019-03-26T12:53:43.391Z,33.20
2019-03-26T12:56:13.281Z,33.60
2019-03-26T12:58:43.106Z,34.60
2019-03-26T13:01:12.933Z,34.40
2019-03-26T13:03:42.947Z,34.00
2019-03-26T13:06:12.873Z,34.50
2019-03-26T13:08:42.757Z,34.40
2019-03-26T13:11:12.585Z,33.70
2019-03-26T13:13:42.477Z,34.00
2019-03-26T13:16:12.393Z,34.60
2019-03-26T13:18:42.269Z,34.20
2019-03-26T13:21:12.801Z,34.30
2019-03-26T13:23:43.690Z,34.60
2019-03-26T13:26:13.571Z,34.70
2019-03-26T13:28:43.466Z,34.50
2019-03-26T13:31:13.454Z,34.50
2019-03-26T13:33:43.458Z,34.90
2019-03-26T13:36:13.401Z,34.80
2019-03-26T13:38:43.270Z,34.40
2019-03-26T13:41:13.087Z,34.60
2019-03-26T13:43:42.949Z,34.00
2019-03-26T13:46:13.057Z,34.20
2019-03-26T13:48:44.077Z,35.00
2019-03-26T13:51:13.919Z,34.60
2019-03-26T13:53:44.155Z,34.10
2019-03-26T13:56:14.402Z,34.10
2019-03-26T13:58:44.590Z,33.90
2019-03-26T14:01:14.655Z,34.10
2019-03-26T14:03:44.686Z,34.60
2019-03-26T14:06:14.789Z,34.50
2019-03-26T14:08:44.625Z,33.90
2019-03-26T14:11:14.498Z,33.90
2019-03-26T14:13:44.465Z,33.90
2019-03-26T14:16:14.325Z,34.10
2019-03-26T14:18:44.265Z,33.70
2019-03-26T14:21:14.259Z,34.10
2019-03-26T14:23:44.137Z,34.20
2019-03-26T14:26:14.069Z,34.50
2019-03-26T14:28:43.964Z,34.70
2019-03-26T14:31:13.785Z,34.60
2019-03-26T14:33:43.608Z,35.00
2019-03-26T14:36:13.604Z,35.20
2019-03-26T14:38:43.507Z,35.50
2019-03-26T14:41:13.439Z,36.40
2019-03-26T14:43:43.305Z,36.40
2019-03-26T14:46:13.139Z,36.10
2019-03-26T14:48:43.121Z,36.50
2019-03-26T14:51:13.109Z,36.60
2019-03-26T14:53:42.929Z,36.60
2019-03-26T14:56:12.859Z,36.90
2019-03-26T14:58:42.737Z,37.10
2019-03-26T15:01:12.638Z,36.80
2019-03-26T15:03:42.533Z,36.80
2019-03-26T15:06:12.465Z,37.00
2019-03-26T15:08:42.322Z,37.00
2019-03-26T15:11:12.243Z,37.50
2019-03-26T15:13:42.127Z,38.40
2019-03-26T15:16:11.978Z,39.10
2019-03-26T15:18:41.934Z,39.00
2019-03-26T15:21:11.852Z,38.20
2019-03-26T15:23:41.745Z,38.40
2019-03-26T15:26:11.702Z,38.80
2019-03-26T15:28:41.545Z,40.00
2019-03-26T15:31:11.489Z,40.50
2019-03-26T15:33:41.367Z,40.90
2019-03-26T15:36:11.361Z,40.10
2019-03-26T15:38:41.301Z,41.10
2019-03-26T15:41:20.939Z,41.30
2019-03-26T15:43:42.729Z,41.50
2019-03-26T15:46:12.581Z,41.80
2019-03-26T15:48:42.425Z,42.20
2019-03-26T15:51:12.297Z,42.30
2019-03-26T15:53:42.143Z,41.80
2019-03-26T15:56:12.014Z,42.00
2019-03-26T15:58:41.881Z,42.20
2019-03-26T16:01:11.786Z,42.80
2019-03-26T16:03:41.863Z,42.70
2019-03-26T16:06:11.724Z,43.20
2019-03-26T16:08:41.546Z,43.10
2019-03-26T16:11:11.409Z,43.60
2019-03-26T16:13:41.265Z,43.30
2019-03-26T16:16:11.109Z,43.00
2019-03-26T16:18:40.972Z,43.80
2019-03-26T16:21:10.917Z,43.90
2019-03-26T16:23:40.815Z,44.20
2019-03-26T16:26:10.720Z,44.30
2019-03-26T16:28:40.558Z,44.50
2019-03-26T16:31:10.417Z,44.80
2019-03-26T16:33:40.285Z,44.70
2019-03-26T16:36:10.128Z,44.50
2019-03-26T16:38:41.080Z,45.00
2019-03-26T16:41:11.018Z,45.10
2019-03-26T16:43:40.969Z,45.00
2019-03-26T16:46:11.068Z,45.20
2019-03-26T16:48:41.124Z,45.00
2019-03-26T16:51:10.947Z,44.90
2019-03-26T16:53:40.819Z,45.00
2019-03-26T16:56:10.718Z,45.20
2019-03-26T16:58:40.609Z,45.10
2019-03-26T17:01:10.483Z,45.40
2019-03-26T17:03:40.424Z,45.60
2019-03-26T17:06:10.245Z,45.50
2019-03-26T17:08:40.114Z,45.50
2019-03-26T17:11:09.989Z,45.40
2019-03-26T17:13:39.894Z,45.50
2019-03-26T17:16:09.801Z,45.70
2019-03-26T17:18:39.637Z,45.80
2019-03-26T17:21:09.501Z,45.80
2019-03-26T17:23:39.402Z,45.50
2019-03-26T17:26:09.330Z,45.60
2019-03-26T17:28:39.302Z,45.10
2019-03-26T17:31:09.269Z,44.60
2019-03-26T17:33:39.234Z,44.00
2019-03-26T17:36:09.217Z,44.00
2019-03-26T17:38:39.269Z,44.20
2019-03-26T17:41:09.220Z,44.00
2019-03-26T17:43:39.048Z,44.20
2019-03-26T17:46:08.915Z,43.70
2019-03-26T17:48:38.877Z,44.00
2019-03-26T17:51:10.672Z,43.70
2019-03-26T17:53:41.165Z,43.10
2019-03-26T17:56:11.026Z,42.30
2019-03-26T17:58:41.609Z,40.80
2019-03-26T18:01:12.565Z,40.30
2019-03-26T18:03:42.817Z,39.60
2019-03-26T18:06:12.737Z,39.30
2019-03-26T18:08:42.701Z,39.50
2019-03-26T18:11:12.626Z,39.50
2019-03-26T18:13:42.483Z,39.30
2019-03-26T18:16:12.419Z,39.40
2019-03-26T18:18:42.465Z,39.50
2019-03-26T18:21:12.846Z,40.10
2019-03-26T18:23:42.957Z,39.50
2019-03-26T18:26:12.885Z,39.60
2019-03-26T18:28:43.613Z,40.00
2019-03-26T18:31:13.580Z,40.40
2019-03-26T18:33:44.874Z,40.90
2019-03-26T18:36:14.858Z,41.00
2019-03-26T18:38:44.689Z,41.00
2019-03-26T18:41:14.661Z,41.60
2019-03-26T18:43:44.528Z,43.00
2019-03-26T18:46:14.494Z,43.00
2019-03-26T18:48:44.374Z,44.60
2019-03-26T18:51:14.269Z,44.50
2019-03-26T18:53:44.248Z,44.70
2019-03-26T18:56:15.129Z,44.90
2019-03-26T18:58:45.085Z,44.90
2019-03-26T19:01:14.963Z,45.20
2019-03-26T19:03:44.902Z,45.20
2019-03-26T19:06:14.788Z,45.20
2019-03-26T19:08:44.761Z,45.20
2019-03-26T19:11:14.619Z,45.20
2019-03-26T19:13:44.562Z,45.20
2019-03-26T19:16:14.434Z,45.30
2019-03-26T19:18:44.313Z,45.20
2019-03-26T19:21:14.225Z,45.20
2019-03-26T19:23:44.221Z,45.20
2019-03-26T19:26:14.157Z,44.70
2019-03-26T19:28:44.026Z,44.80
2019-03-26T19:31:13.985Z,44.40
2019-03-26T19:33:44.036Z,43.90
2019-03-26T19:36:13.879Z,43.90
2019-03-26T19:38:43.835Z,44.30
2019-03-26T19:41:13.694Z,44.40
2019-03-26T19:43:43.685Z,44.60
2019-03-26T19:46:13.599Z,44.70
2019-03-26T19:48:43.454Z,44.40
2019-03-26T19:51:13.414Z,44.20
2019-03-26T19:53:43.356Z,44.10
2019-03-26T19:56:13.184Z,44.20
2019-03-26T19:58:43.170Z,44.50
2019-03-26T20:01:13.021Z,44.70
2019-03-26T20:03:43.023Z,44.40
2019-03-26T20:06:14.083Z,44.50
2019-03-26T20:08:44.403Z,44.00
2019-03-26T20:11:15.411Z,44.70
2019-03-26T20:13:46.086Z,44.20
2019-03-26T20:16:15.994Z,44.20
2019-03-26T20:18:45.917Z,44.30
2019-03-26T20:21:15.945Z,44.10
2019-03-26T20:23:45.874Z,44.20
2019-03-26T20:26:15.764Z,44.00
2019-03-26T20:28:45.729Z,44.10
2019-03-26T20:31:15.744Z,44.20
2019-03-26T20:33:45.650Z,44.20
2019-03-26T20:36:15.517Z,44.50
2019-03-26T20:38:45.481Z,45.10
2019-03-26T20:41:15.366Z,44.60
2019-03-26T20:43:45.374Z,44.90
2019-03-26T20:46:15.421Z,45.10
2019-03-26T20:48:45.317Z,45.20
2019-03-26T20:51:15.190Z,45.50
2019-03-26T20:53:45.097Z,45.80
2019-03-26T20:56:14.962Z,45.80
2019-03-26T20:58:45.981Z,46.00
2019-03-26T21:01:15.908Z,46.00
2019-03-26T21:03:45.878Z,45.90
2019-03-26T21:06:16.544Z,46.20
2019-03-26T21:08:46.413Z,46.40
2019-03-26T21:11:16.318Z,46.70
2019-03-26T21:13:51.072Z,47.00
2019-03-26T21:16:17.789Z,47.40
2019-03-26T21:18:47.626Z,47.40
2019-03-26T21:21:17.448Z,47.40
2019-03-26T21:23:47.321Z,47.40
2019-03-26T21:26:17.149Z,47.60
2019-03-26T21:28:47.034Z,47.50
2019-03-26T21:31:16.853Z,47.60
2019-03-26T21:33:46.702Z,47.60
2019-03-26T21:36:16.635Z,47.70
2019-03-26T21:38:46.581Z,47.90
2019-03-26T21:41:16.397Z,47.90
2019-03-26T21:43:46.278Z,47.90
2019-03-26T21:46:16.094Z,48.20
2019-03-26T21:48:45.947Z,48.10
2019-03-26T21:51:15.876Z,48.10
2019-03-26T21:53:45.690Z,48.20
2019-03-26T21:56:15.525Z,48.40
2019-03-26T21:58:45.425Z,48.30
2019-03-26T22:01:15.291Z,48.20
2019-03-26T22:03:45.121Z,48.30
2019-03-26T22:06:15.033Z,48.20
2019-03-26T22:08:44.916Z,48.20
2019-03-26T22:11:14.743Z,48.20
2019-03-26T22:13:44.621Z,48.30
2019-03-26T22:16:14.433Z,48.40
2019-03-26T22:18:44.290Z,48.30
2019-03-26T22:21:14.298Z,48.30
2019-03-26T22:23:44.189Z,48.50
2019-03-26T22:26:14.059Z,48.50
2019-03-26T22:28:43.957Z,48.80
2019-03-26T22:31:13.897Z,49.10
2019-03-26T22:33:43.773Z,49.70
2019-03-26T22:36:13.639Z,50.10
2019-03-26T22:38:43.598Z,51.10
2019-03-26T22:41:14.065Z,50.90
2019-03-26T22:43:43.896Z,51.10
2019-03-26T22:46:13.716Z,51.40
2019-03-26T22:48:43.571Z,51.40
2019-03-26T22:51:13.393Z,51.60
2019-03-26T22:53:43.269Z,51.50
2019-03-26T22:56:13.089Z,51.50
2019-03-26T22:58:42.992Z,51.60
2019-03-26T23:01:13.886Z,51.80
2019-03-26T23:03:44.441Z,52.20
2019-03-26T23:06:14.272Z,52.20
2019-03-26T23:08:44.125Z,52.90
2019-03-26T23:11:14.353Z,52.60
2019-03-26T23:13:44.301Z,52.80
2019-03-26T23:16:14.178Z,53.00
2019-03-26T23:18:44.057Z,53.00
2019-03-26T23:21:13.872Z,53.90
2019-03-26T23:23:43.752Z,53.10
2019-03-26T23:26:13.573Z,53.30
2019-03-26T23:28:43.450Z,53.20
2019-03-26T23:31:13.278Z,53.40
2019-03-26T23:33:43.153Z,53.60
2019-03-26T23:36:12.997Z,53.60
2019-03-26T23:38:42.881Z,53.60
2019-03-26T23:41:12.697Z,53.70
2019-03-26T23:43:42.577Z,53.80
2019-03-26T23:46:12.477Z,54.30
2019-03-26T23:48:42.362Z,53.40
2019-03-26T23:51:12.246Z,53.30
2019-03-26T23:53:42.133Z,53.20
2019-03-26T23:56:11.965Z,53.20
2019-03-26T23:58:41.850Z,52.70
